KISM/ISM METAR and TAF weather

Enter ICAO airport designator
Station Type Date Time Source
KISM METAR 2019/06/20 06:56 UTC NOAA

KISM 200656Z AUTO 19003KT 10SM CLR 23/22 A2998 RMK AO2 SLP155 T02280217 PNO $


Station Type Date Time Source
KISM Decoded METAR 2019/06/20 06:56 UTC NOAA

Orlando, Kissimmee Municipal Airport, FL, United States (KISM) 28-17-23N 081-26-14W
Jun 20, 2019 - 02:56 AM EDT / 2019.06.20 0656 UTC
Wind: from the S (190 degrees) at 3 MPH (3 KT):0
Visibility: 10 mile(s):0
Sky conditions: clear
Temperature: 73.0 F (22.8 C)
Dew Point: 71.1 F (21.7 C)
Relative Humidity: 93%
Pressure (altimeter): 29.98 in. Hg (1015 hPa)
ob: KISM 200656Z AUTO 19003KT 10SM CLR 23/22 A2998 RMK AO2 SLP155 T02280217 PNO
cycle: 7

Station Type Date Time Source
KISM TAF 2019/06/20 06:48 UTC NOAA

TAF KISM 200545Z 2006/2106 20008KT P6SM FEW025 SCT250
FM201400 24012G18KT P6SM SCT040 SCT250
FM210000 24008KT P6SM FEW040 SCT250

Example: see airport list